メインページ
METAR-TAF:

METAR-TAF

空港 :

シモン・ボリバル国際空港

カラカス, ベネズエラ

緯度: 10-36N, 経度: 066-59W, 海抜: 43m

現時点の気象観測

当レポートは48分前の09:00(UTC)に作成
の風 1kt
気温 24°C
湿度 89%
気圧 1010 hPa
視程10km以上
高度1600ftの雲はほとんどない

METAR: SVMI 200900Z 09001KT 9999 FEW016 24/22 Q1010

時間: 05:48 (09:48 UTC)

予報

当レポートは5時間48分前の04:00(UTC)に作成
予報は20日の 06時(UTC)から 21日の 06時(UTC)まで有効
北東の風 3kt
視程10km以上
高度1600ftの雲は散在している
20日の 06時(UTC)から 20日の 10時(UTC)まで徐々に
の風 kt
高度1600ftの雲はほとんどない

TAF: SVMI 200400Z 2006/2106 05003KT 9999 SCT016 TX32/19Z TN24/09Z BECMG 2006/2010 07006KT 00000KT FEW016

4,000以上の空港の気象観測と天気予報(METAR報とTAF報)

利用可能な観測所は地図上に黄色い丸と赤い丸で示す。

丸の上にカーソルを重ねると観測所名を参照できる。

次にクリックすると気象観測と天気予報を参照できる。

マップの切り替え:黒色「×」印の緑ボタンをクリックして拡大、「-」印の緑ボタンをクリックして縮小、緑色の三角印をクリックして隣りの地図に切り替え


METAR-TAF: